Time;durP1;ratioP1;P1;durP2;ratioP2;P2;SDS_P1;SDS_P2;PMS_P1;PMS_P2;Temp;Humidity;BMP_temperature;BMP_pressure;BME280_temperature;BME280_humidity;BME280_pressure;Samples;Min_cycle;Max_cycle;Signal;HPM_P1;HPM_P2
2022/01/19 00:01:26;;;;;;;;;;;-2.10;99.90;;;;;;5064978;28;19924;-51
2022/01/19 00:03:53;;;;;;;;;;;-2.20;99.90;;;;;;5059606;28;20389;-51
2022/01/19 00:06:20;;;;;;;;;;;-2.30;99.90;;;;;;5052197;28;19937;-50
2022/01/19 00:08:46;;;;;;;;;;;-2.30;99.90;;;;;;5051822;28;19937;-51
2022/01/19 00:11:15;;;;;;;;;;;-2.30;99.90;;;;;;5052517;28;19924;-51
2022/01/19 00:13:42;;;;;;;;;;;-2.30;99.90;;;;;;5052561;28;19971;-51
2022/01/19 00:16:09;;;;;;;;;;;-2.20;99.90;;;;;;5052069;28;19924;-51
2022/01/19 00:18:36;;;;;;;;;;;-2.20;99.90;;;;;;5052604;28;19925;-51
2022/01/19 00:21:03;;;;;;;;;;;-2.20;99.90;;;;;;5052191;28;19928;-51
2022/01/19 00:23:30;;;;;;;;;;;-2.10;99.90;;;;;;5052670;28;19925;-51
2022/01/19 00:25:57;;;;;;;;;;;-2.10;99.90;;;;;;5052014;28;19924;-52
2022/01/19 00:28:26;;;;;;;;;;;-2.20;99.90;;;;;;5050500;28;19925;-51
2022/01/19 00:30:53;;;;;;;;;;;-2.20;99.90;;;;;;5052111;28;20322;-51
2022/01/19 00:33:20;;;;;;;;;;;-2.30;99.90;;;;;;5051566;28;19925;-51
2022/01/19 00:35:47;;;;;;;;;;;-2.30;99.90;;;;;;5051954;28;19924;-50
2022/01/19 00:38:13;;;;;;;;;;;-2.30;99.90;;;;;;5052537;28;19928;-52
2022/01/19 00:40:41;;;;;;;;;;;-2.30;99.90;;;;;;5052633;28;19971;-52
2022/01/19 00:43:08;;;;;;;;;;;-2.30;99.90;;;;;;5051814;28;19928;-52
2022/01/19 00:45:36;;;;;;;;;;;-2.40;99.90;;;;;;5051777;28;19929;-52
2022/01/19 00:48:04;;;;;;;;;;;-2.40;99.90;;;;;;5051851;28;20349;-51
2022/01/19 00:50:31;;;;;;;;;;;-2.40;99.90;;;;;;5051956;28;19924;-51
2022/01/19 00:52:58;;;;;;;;;;;-2.50;99.90;;;;;;5051327;28;19924;-52
2022/01/19 00:55:26;;;;;;;;;;;-2.50;99.90;;;;;;5052433;28;20346;-51
2022/01/19 00:57:53;;;;;;;;;;;-2.50;99.90;;;;;;5051749;28;19929;-51
2022/01/19 01:00:21;;;;;;;;;;;-2.50;99.90;;;;;;5051985;28;19925;-53
2022/01/19 01:02:49;;;;;;;;;;;-2.50;99.90;;;;;;5051639;28;19947;-53
2022/01/19 01:05:16;;;;;;;;;;;-2.50;99.90;;;;;;5052427;28;19936;-51
2022/01/19 01:07:43;;;;;;;;;;;-2.60;99.90;;;;;;5051787;28;19924;-52
2022/01/19 01:10:13;;;;;;;;;;;-2.60;99.90;;;;;;5051701;28;20010;-52
2022/01/19 01:12:46;;;;;;;;;;;-2.60;99.90;;;;;;5051201;28;20553;-52
2022/01/19 01:15:35;;;;;;;;;;;-2.60;99.90;;;;;;5051487;28;19929;-52
2022/01/19 01:18:20;;;;;;;;;;;-2.60;99.90;;;;;;5051753;28;19921;-52
2022/01/19 01:20:48;;;;;;;;;;;-2.60;99.90;;;;;;5051688;28;19925;-52
2022/01/19 01:23:15;;;;;;;;;;;-2.60;99.90;;;;;;5050838;28;20344;-52
2022/01/19 01:25:42;;;;;;;;;;;-2.60;99.90;;;;;;5050871;28;20006;-51
2022/01/19 01:28:09;;;;;;;;;;;-2.60;99.90;;;;;;5051611;28;20459;-52
2022/01/19 01:30:36;;;;;;;;;;;-2.60;99.90;;;;;;5051662;28;19929;-52
2022/01/19 01:33:04;;;;;;;;;;;-2.60;99.90;;;;;;5051070;28;19929;-53
2022/01/19 01:35:31;;;;;;;;;;;-2.60;99.90;;;;;;5051177;28;20329;-53
2022/01/19 01:37:59;;;;;;;;;;;-2.60;99.90;;;;;;5051448;28;19931;-52
2022/01/19 01:40:26;;;;;;;;;;;-2.60;99.90;;;;;;5050986;28;19931;-52
2022/01/19 01:42:54;;;;;;;;;;;-2.60;99.90;;;;;;5050867;28;19924;-50
2022/01/19 01:45:26;;;;;;;;;;;-2.60;99.90;;;;;;5051026;28;19957;-51
2022/01/19 01:48:02;;;;;;;;;;;-2.60;99.90;;;;;;5050960;28;19979;-50
2022/01/19 01:53:29;;;;;;;;;;;-2.60;99.90;;;;;;5050334;28;20000;-51
2022/01/19 01:55:57;;;;;;;;;;;-2.60;99.90;;;;;;5050914;28;19928;-52
2022/01/19 01:58:24;;;;;;;;;;;-2.60;99.90;;;;;;5050642;28;20406;-51
2022/01/19 02:00:51;;;;;;;;;;;-2.40;99.90;;;;;;5053860;28;20444;-51
2022/01/19 02:03:18;;;;;;;;;;;-2.30;99.90;;;;;;5054885;28;19928;-53
2022/01/19 02:06:08;;;;;;;;;;;-2.30;99.90;;;;;;5054489;28;19925;-50
2022/01/19 02:08:40;;;;;;;;;;;-2.30;99.90;;;;;;5054866;28;19964;-51
2022/01/19 02:11:31;;;;;;;;;;;-2.00;99.90;;;;;;5054553;28;19929;-51
2022/01/19 02:16:50;;;;;;;;;;;-1.90;99.90;;;;;;5054234;28;20306;-52
2022/01/19 02:22:04;;;;;;;;;;;-1.90;99.90;;;;;;5054520;28;19932;-50
2022/01/19 02:24:40;;;;;;;;;;;-2.00;99.90;;;;;;5054315;28;20386;-50
2022/01/19 02:27:13;;;;;;;;;;;-1.90;99.90;;;;;;5053645;28;19932;-51
2022/01/19 02:40:37;;;;;;;;;;;-1.90;99.90;;;;;;5053953;28;19931;-51
2022/01/19 02:43:09;;;;;;;;;;;-1.90;99.90;;;;;;5053432;28;20394;-51
2022/01/19 02:51:07;;;;;;;;;;;-2.10;99.90;;;;;;5053342;28;20586;-50
2022/01/19 02:53:35;;;;;;;;;;;-2.20;99.90;;;;;;5053507;28;19925;-51
2022/01/19 02:56:08;;;;;;;;;;;-2.10;99.90;;;;;;5053868;28;20444;-51
2022/01/19 02:58:40;;;;;;;;;;;-2.20;99.90;;;;;;5053193;28;20011;-50
2022/01/19 03:09:20;;;;;;;;;;;-2.20;99.90;;;;;;5053307;28;19928;-52
2022/01/19 03:11:47;;;;;;;;;;;-2.20;99.90;;;;;;5052525;28;20412;-51
2022/01/19 03:14:14;;;;;;;;;;;-2.30;99.90;;;;;;5052681;28;19925;-51
2022/01/19 03:16:42;;;;;;;;;;;-2.30;99.90;;;;;;5053833;28;20054;-50
2022/01/19 03:19:10;;;;;;;;;;;-2.40;99.90;;;;;;5072000;22;19925;-50
2022/01/19 03:21:36;;;;;;;;;;;-2.30;99.90;;;;;;5040186;28;19925;-50
2022/01/19 03:24:04;;;;;;;;;;;-2.40;99.90;;;;;;5049997;28;19925;-49
2022/01/19 03:26:32;;;;;;;;;;;-2.40;99.90;;;;;;5053065;28;19955;-49
2022/01/19 03:28:59;;;;;;;;;;;-2.30;99.90;;;;;;5052638;28;19925;-50
2022/01/19 03:31:26;;;;;;;;;;;-2.50;99.90;;;;;;5053358;28;20037;-50
2022/01/19 03:33:53;;;;;;;;;;;-2.60;99.90;;;;;;5052743;28;19925;-49
2022/01/19 03:36:19;;;;;;;;;;;-2.70;99.90;;;;;;5053315;28;19925;-49
2022/01/19 03:38:46;;;;;;;;;;;-2.90;99.90;;;;;;5051761;28;20468;-49
2022/01/19 03:41:13;;;;;;;;;;;-2.90;99.90;;;;;;5052686;28;20351;-50
2022/01/19 03:43:41;;;;;;;;;;;-3.00;99.90;;;;;;5052554;28;20410;-50
2022/01/19 03:46:13;;;;;;;;;;;-3.00;99.90;;;;;;5052936;28;19986;-49
2022/01/19 03:48:45;;;;;;;;;;;-3.10;99.90;;;;;;5052753;28;19986;-50
2022/01/19 03:51:12;;;;;;;;;;;-3.00;99.90;;;;;;5052397;28;20484;-50
2022/01/19 03:53:39;;;;;;;;;;;-3.10;99.90;;;;;;5051202;28;20516;-49
2022/01/19 03:56:05;;;;;;;;;;;-2.90;99.90;;;;;;5052653;28;20456;-49
2022/01/19 03:58:32;;;;;;;;;;;-2.80;99.90;;;;;;5052160;28;19979;-49
2022/01/19 04:01:02;;;;;;;;;;;-2.80;99.90;;;;;;5052563;28;19929;-49
2022/01/19 04:03:42;;;;;;;;;;;-2.70;99.90;;;;;;5051998;28;19962;-50
2022/01/19 04:06:17;;;;;;;;;;;-2.60;99.90;;;;;;5051902;28;19925;-49
2022/01/19 04:08:44;;;;;;;;;;;-2.70;99.90;;;;;;5052267;28;19924;-49
2022/01/19 04:11:12;;;;;;;;;;;-2.90;99.90;;;;;;5052300;28;20387;-50
2022/01/19 04:13:59;;;;;;;;;;;-3.00;99.90;;;;;;5051814;28;20016;-49
2022/01/19 04:16:27;;;;;;;;;;;-3.10;99.90;;;;;;5044261;28;19929;-50
2022/01/19 04:19:03;;;;;;;;;;;-3.10;99.90;;;;;;5035482;28;19924;-50
2022/01/19 04:21:30;;;;;;;;;;;-3.00;99.90;;;;;;5051915;28;20353;-50
2022/01/19 04:23:57;;;;;;;;;;;-3.00;99.90;;;;;;5051265;28;20386;-50
2022/01/19 04:26:24;;;;;;;;;;;-3.00;99.90;;;;;;5051933;28;19924;-49
2022/01/19 04:28:50;;;;;;;;;;;-3.10;99.90;;;;;;5051854;28;19925;-49
2022/01/19 04:31:17;;;;;;;;;;;-3.00;99.90;;;;;;5051530;28;19928;-50
2022/01/19 04:33:45;;;;;;;;;;;-3.10;99.90;;;;;;5050432;28;20383;-50
2022/01/19 04:36:27;;;;;;;;;;;-3.10;99.90;;;;;;5051978;28;19932;-50
2022/01/19 04:39:23;;;;;;;;;;;-3.10;99.90;;;;;;5051702;28;19925;-49
2022/01/19 04:44:52;;;;;;;;;;;-3.10;99.90;;;;;;5051922;28;19927;-50
2022/01/19 05:03:52;;;;;;;;;;;-3.20;99.90;;;;;;5050763;28;19928;-50
2022/01/19 05:06:21;;;;;;;;;;;-3.20;99.90;;;;;;5045496;28;20007;-49
2022/01/19 05:09:05;;;;;;;;;;;-3.30;99.90;;;;;;5051181;28;19924;-49
2022/01/19 05:14:15;;;;;;;;;;;-3.30;99.90;;;;;;5051234;28;19935;-49
2022/01/19 05:16:42;;;;;;;;;;;-3.40;99.90;;;;;;5047006;28;20361;-49
2022/01/19 05:19:09;;;;;;;;;;;-3.20;99.90;;;;;;5051024;28;20332;-49
2022/01/19 05:21:37;;;;;;;;;;;-3.10;99.90;;;;;;5051329;28;20544;-49
2022/01/19 05:24:06;;;;;;;;;;;-3.20;99.90;;;;;;5050077;28;19925;-49
2022/01/19 05:26:35;;;;;;;;;;;-3.30;99.90;;;;;;5049856;28;19931;-49
2022/01/19 05:29:02;;;;;;;;;;;-3.30;99.90;;;;;;5049550;28;19929;-49
2022/01/19 05:31:28;;;;;;;;;;;-3.40;99.90;;;;;;5051027;28;19925;-49
2022/01/19 05:33:55;;;;;;;;;;;-3.30;99.90;;;;;;5052021;28;19928;-52
2022/01/19 05:36:22;;;;;;;;;;;-3.40;99.90;;;;;;5055438;28;20055;-50
2022/01/19 05:38:50;;;;;;;;;;;-3.40;99.90;;;;;;5054982;28;20341;-49
2022/01/19 05:41:17;;;;;;;;;;;-3.40;99.90;;;;;;5054825;28;19929;-50
2022/01/19 05:43:44;;;;;;;;;;;-3.50;99.90;;;;;;5054955;28;19925;-50
2022/01/19 05:46:11;;;;;;;;;;;-3.50;99.90;;;;;;5054855;28;19979;-49
2022/01/19 05:48:37;;;;;;;;;;;-3.60;99.90;;;;;;5055291;28;19925;-50
2022/01/19 05:51:04;;;;;;;;;;;-3.60;99.90;;;;;;5055109;28;20306;-49
2022/01/19 05:53:31;;;;;;;;;;;-3.60;99.90;;;;;;5054593;28;19925;-50
2022/01/19 05:55:59;;;;;;;;;;;-3.60;99.90;;;;;;5039365;28;19929;-50
2022/01/19 05:58:26;;;;;;;;;;;-3.50;99.90;;;;;;5054343;28;20088;-50
2022/01/19 06:00:53;;;;;;;;;;;-3.50;99.90;;;;;;5054650;28;21612;-50
2022/01/19 06:03:19;;;;;;;;;;;-3.60;99.90;;;;;;5054336;28;19971;-49
2022/01/19 06:05:46;;;;;;;;;;;-3.60;99.90;;;;;;5054453;28;20378;-49
2022/01/19 06:08:17;;;;;;;;;;;-3.60;99.90;;;;;;5054433;28;20403;-49
2022/01/19 06:10:45;;;;;;;;;;;-3.60;99.90;;;;;;5054536;28;20363;-49
2022/01/19 06:13:14;;;;;;;;;;;-3.60;99.90;;;;;;5054019;28;19932;-50
2022/01/19 06:15:41;;;;;;;;;;;-3.50;99.90;;;;;;5054328;28;20279;-49
2022/01/19 06:18:10;;;;;;;;;;;-3.60;99.90;;;;;;5054546;28;20378;-49
2022/01/19 06:20:37;;;;;;;;;;;-3.60;99.90;;;;;;5054435;28;19925;-50
2022/01/19 06:23:04;;;;;;;;;;;-3.60;99.90;;;;;;5051017;28;19925;-49
2022/01/19 06:25:31;;;;;;;;;;;-3.50;99.90;;;;;;5034534;28;19979;-50
2022/01/19 06:27:58;;;;;;;;;;;-3.40;99.90;;;;;;5043376;28;20283;-49
2022/01/19 06:30:27;;;;;;;;;;;-3.40;99.90;;;;;;5054036;28;19931;-49
2022/01/19 06:32:54;;;;;;;;;;;-3.50;99.90;;;;;;5053425;28;20414;-50
2022/01/19 06:35:21;;;;;;;;;;;-3.40;99.90;;;;;;5054291;28;19932;-50
2022/01/19 06:37:47;;;;;;;;;;;-3.40;99.90;;;;;;5054235;28;19925;-50
2022/01/19 06:40:15;;;;;;;;;;;-3.40;99.90;;;;;;5053388;28;19970;-49
2022/01/19 06:42:42;;;;;;;;;;;-3.40;99.90;;;;;;5052199;28;20459;-50
2022/01/19 06:45:10;;;;;;;;;;;-3.40;99.90;;;;;;5053673;28;19948;-50
2022/01/19 06:47:38;;;;;;;;;;;-3.40;99.90;;;;;;5053354;28;19944;-49
2022/01/19 06:50:05;;;;;;;;;;;-3.50;99.90;;;;;;5044569;28;19932;-50
2022/01/19 06:52:32;;;;;;;;;;;-3.40;99.90;;;;;;5053196;28;19978;-49
2022/01/19 06:54:59;;;;;;;;;;;-3.40;99.90;;;;;;5052465;28;19925;-50
2022/01/19 06:57:26;;;;;;;;;;;-3.30;99.90;;;;;;5053876;28;19960;-50
2022/01/19 06:59:52;;;;;;;;;;;-3.30;99.90;;;;;;5052681;28;20320;-49
2022/01/19 07:02:19;;;;;;;;;;;-3.30;99.90;;;;;;5048437;28;20366;-49
2022/01/19 07:04:49;;;;;;;;;;;-3.30;99.90;;;;;;5053324;28;19925;-50
2022/01/19 07:07:17;;;;;;;;;;;-3.20;99.90;;;;;;5052788;28;20405;-49
2022/01/19 07:09:43;;;;;;;;;;;-3.20;99.90;;;;;;5051912;28;20279;-50
2022/01/19 07:12:11;;;;;;;;;;;-3.30;99.90;;;;;;5053582;28;19940;-50
2022/01/19 07:14:38;;;;;;;;;;;-3.30;99.90;;;;;;5052980;28;19929;-50
2022/01/19 07:17:05;;;;;;;;;;;-3.30;99.90;;;;;;5052882;28;19979;-49
2022/01/19 07:19:32;;;;;;;;;;;-3.20;99.90;;;;;;5053082;28;19925;-49
2022/01/19 07:22:00;;;;;;;;;;;-3.20;99.90;;;;;;5051901;28;19929;-49
2022/01/19 07:24:27;;;;;;;;;;;-3.20;99.90;;;;;;5051932;28;19928;-49
2022/01/19 07:26:53;;;;;;;;;;;-3.30;99.90;;;;;;5051827;28;19928;-50
2022/01/19 07:29:20;;;;;;;;;;;-3.30;99.90;;;;;;5051777;28;19924;-50
2022/01/19 07:37:54;;;;;;;;;;;-3.30;99.90;;;;;;5052063;28;20409;-50
2022/01/19 07:40:41;;;;;;;;;;;-3.30;99.90;;;;;;5052198;28;20832;-49
2022/01/19 07:43:09;;;;;;;;;;;-3.30;99.90;;;;;;5052590;28;19933;-50
2022/01/19 07:45:36;;;;;;;;;;;-3.20;99.90;;;;;;5052888;28;19924;-50
2022/01/19 07:48:03;;;;;;;;;;;-3.20;99.90;;;;;;5052857;28;19933;-50
2022/01/19 07:50:30;;;;;;;;;;;-3.10;99.90;;;;;;5053016;28;19925;-50
2022/01/19 07:52:58;;;;;;;;;;;-3.00;99.90;;;;;;5052212;28;19986;-50
2022/01/19 07:55:25;;;;;;;;;;;-2.70;99.90;;;;;;5051955;28;19925;-49
2022/01/19 07:57:52;;;;;;;;;;;-2.60;99.90;;;;;;5051311;28;19924;-50
2022/01/19 08:00:20;;;;;;;;;;;-2.30;99.90;;;;;;5052903;28;19924;-49
2022/01/19 08:02:46;;;;;;;;;;;-2.30;99.90;;;;;;5048055;28;20409;-49
2022/01/19 08:05:13;;;;;;;;;;;-2.20;99.90;;;;;;5052636;28;19924;-50
2022/01/19 08:07:40;;;;;;;;;;;-2.30;99.90;;;;;;5052003;28;19933;-50
2022/01/19 08:10:09;;;;;;;;;;;-2.20;99.90;;;;;;5052454;28;20449;-49
2022/01/19 08:12:37;;;;;;;;;;;-2.30;99.90;;;;;;5051088;28;19951;-50
2022/01/19 08:15:04;;;;;;;;;;;-2.30;99.90;;;;;;5052012;28;19929;-50
2022/01/19 08:17:30;;;;;;;;;;;-2.10;99.90;;;;;;5051952;28;19933;-49
2022/01/19 08:19:57;;;;;;;;;;;-2.00;99.90;;;;;;5045530;28;19929;-49
2022/01/19 08:22:24;;;;;;;;;;;-1.90;99.90;;;;;;5046392;28;19925;-50
2022/01/19 08:24:51;;;;;;;;;;;-1.80;99.90;;;;;;5051856;28;19933;-50
2022/01/19 08:27:19;;;;;;;;;;;-1.40;99.90;;;;;;5058823;28;19946;-50
2022/01/19 08:29:46;;;;;;;;;;;-1.30;99.90;;;;;;5071896;28;19928;-49
2022/01/19 08:32:13;;;;;;;;;;;-1.20;99.90;;;;;;5057998;28;19932;-50
2022/01/19 08:34:40;;;;;;;;;;;-1.00;99.90;;;;;;5051700;28;20341;-50
2022/01/19 08:37:10;;;;;;;;;;;-0.40;99.90;;;;;;5049756;28;19971;-50
2022/01/19 08:39:38;;;;;;;;;;;0.50;99.90;;;;;;5051996;28;19947;-50
2022/01/19 08:42:05;;;;;;;;;;;1.60;99.90;;;;;;5052414;28;19924;-51
2022/01/19 08:44:33;;;;;;;;;;;2.30;99.90;;;;;;5052041;28;19979;-51
2022/01/19 08:47:00;;;;;;;;;;;2.60;99.90;;;;;;5052197;28;20012;-50
2022/01/19 08:49:27;;;;;;;;;;;3.30;99.90;;;;;;5051800;28;20425;-51
2022/01/19 08:51:54;;;;;;;;;;;4.40;99.90;;;;;;5049986;28;19983;-50
2022/01/19 08:54:20;;;;;;;;;;;5.40;99.90;;;;;;5047513;28;19925;-50
2022/01/19 08:56:47;;;;;;;;;;;6.80;99.90;;;;;;5051911;28;20353;-49
2022/01/19 08:59:16;;;;;;;;;;;8.10;99.90;;;;;;5051434;28;20394;-49
2022/01/19 09:01:44;;;;;;;;;;;8.80;99.90;;;;;;5052047;28;19987;-47
2022/01/19 09:04:11;;;;;;;;;;;9.50;99.90;;;;;;5051290;28;19925;-50
2022/01/19 09:06:38;;;;;;;;;;;9.80;99.90;;;;;;5051359;28;20062;-50
2022/01/19 09:09:05;;;;;;;;;;;10.10;99.90;;;;;;5051048;28;19979;-48
2022/01/19 09:11:31;;;;;;;;;;;10.20;99.90;;;;;;5051754;28;19971;-51
2022/01/19 09:14:00;;;;;;;;;;;10.10;99.90;;;;;;5051291;28;19925;-49
2022/01/19 09:16:27;;;;;;;;;;;9.90;99.90;;;;;;5050455;28;20471;-51
2022/01/19 09:18:55;;;;;;;;;;;9.60;99.90;;;;;;5050616;28;19925;-50
2022/01/19 09:21:22;;;;;;;;;;;9.40;99.90;;;;;;5084167;22;20452;-52
2022/01/19 09:23:51;;;;;;;;;;;9.60;99.90;;;;;;5064746;28;19924;-52
2022/01/19 09:26:17;;;;;;;;;;;10.10;99.90;;;;;;5078844;28;19928;-53
2022/01/19 09:28:44;;;;;;;;;;;11.30;99.90;;;;;;5092299;28;19924;-52
2022/01/19 09:31:12;;;;;;;;;;;11.30;99.90;;;;;;5053761;28;19925;-53
2022/01/19 09:33:41;;;;;;;;;;;10.30;99.90;;;;;;5055256;28;20390;-52
2022/01/19 09:36:29;;;;;;;;;;;10.30;99.90;;;;;;5051871;28;19925;-52
2022/01/19 09:38:56;;;;;;;;;;;10.50;99.90;;;;;;5057139;28;19948;-52
2022/01/19 09:41:23;;;;;;;;;;;10.80;99.90;;;;;;5047185;28;20304;-50
2022/01/19 09:43:50;;;;;;;;;;;9.70;99.90;;;;;;5051675;28;19925;-50
2022/01/19 09:46:17;;;;;;;;;;;8.30;99.90;;;;;;5051708;28;19928;-50
2022/01/19 09:48:43;;;;;;;;;;;7.60;99.90;;;;;;5051487;28;19925;-50
2022/01/19 09:51:14;;;;;;;;;;;6.70;99.90;;;;;;5051462;28;19925;-50
2022/01/19 09:53:41;;;;;;;;;;;6.70;99.90;;;;;;5051932;28;20276;-50
2022/01/19 09:56:07;;;;;;;;;;;6.60;99.90;;;;;;5051558;28;19983;-50
2022/01/19 09:58:34;;;;;;;;;;;6.20;99.90;;;;;;5050292;28;19924;-51
2022/01/19 10:01:01;;;;;;;;;;;5.60;99.90;;;;;;5043030;28;19951;-51
2022/01/19 10:03:31;;;;;;;;;;;5.80;99.90;;;;;;5044365;28;19932;-51
2022/01/19 10:06:05;;;;;;;;;;;5.80;99.90;;;;;;5050135;28;20399;-51
2022/01/19 10:08:34;;;;;;;;;;;5.90;99.90;;;;;;5051373;28;19931;-52
2022/01/19 10:11:13;;;;;;;;;;;5.90;99.90;;;;;;5051526;28;19931;-51
2022/01/19 10:19:13;;;;;;;;;;;7.00;99.90;;;;;;5038586;28;20322;-52
2022/01/19 10:21:55;;;;;;;;;;;8.50;99.90;;;;;;5053507;28;19928;-52
2022/01/19 10:24:34;;;;;;;;;;;10.00;99.90;;;;;;5055281;28;20386;-52
2022/01/19 10:27:20;;;;;;;;;;;11.50;99.90;;;;;;5053565;28;20344;-52
2022/01/19 10:29:48;;;;;;;;;;;12.90;99.90;;;;;;5054840;28;20459;-52
2022/01/19 10:32:15;;;;;;;;;;;13.20;99.90;;;;;;5055595;28;19929;-52
2022/01/19 10:34:41;;;;;;;;;;;13.50;99.90;;;;;;5055511;28;19925;-51
2022/01/19 10:37:08;;;;;;;;;;;13.70;99.40;;;;;;5055526;28;19925;-51
2022/01/19 10:39:40;;;;;;;;;;;13.60;98.80;;;;;;5055199;28;20283;-51
2022/01/19 10:42:09;;;;;;;;;;;13.40;98.40;;;;;;5055438;28;19979;-51
2022/01/19 10:44:36;;;;;;;;;;;13.60;98.30;;;;;;5055911;28;20378;-51
2022/01/19 10:47:03;;;;;;;;;;;13.80;98.20;;;;;;5060695;28;19925;-51
2022/01/19 10:49:46;;;;;;;;;;;13.60;97.90;;;;;;5067149;28;19928;-51
2022/01/19 10:52:25;;;;;;;;;;;12.90;98.60;;;;;;5046450;28;19925;-51
2022/01/19 10:54:53;;;;;;;;;;;11.00;99.90;;;;;;5040013;28;19925;-52
2022/01/19 10:57:20;;;;;;;;;;;9.50;99.90;;;;;;5042860;28;19925;-52
2022/01/19 10:59:47;;;;;;;;;;;8.00;99.90;;;;;;5059362;28;20444;-52
2022/01/19 11:02:13;;;;;;;;;;;7.30;99.90;;;;;;5054224;28;20410;-53
2022/01/19 11:04:42;;;;;;;;;;;6.70;99.90;;;;;;5053996;28;20276;-53
2022/01/19 11:07:11;;;;;;;;;;;6.30;99.90;;;;;;5052086;28;19931;-52
2022/01/19 11:09:44;;;;;;;;;;;6.00;99.90;;;;;;5053249;28;19970;-52
2022/01/19 11:12:15;;;;;;;;;;;5.70;99.90;;;;;;5049978;28;20555;-52
2022/01/19 11:14:43;;;;;;;;;;;5.50;99.90;;;;;;5054578;28;19924;-51
2022/01/19 11:17:10;;;;;;;;;;;5.20;99.90;;;;;;5069761;28;20396;-52
2022/01/19 11:19:37;;;;;;;;;;;5.20;99.90;;;;;;5071403;28;19936;-52
2022/01/19 11:22:14;;;;;;;;;;;5.40;99.90;;;;;;5052967;28;20375;-53
2022/01/19 11:24:44;;;;;;;;;;;5.30;99.90;;;;;;5051332;28;19932;-53
2022/01/19 11:27:11;;;;;;;;;;;5.60;99.90;;;;;;5051741;28;20382;-53
2022/01/19 11:29:40;;;;;;;;;;;5.80;99.90;;;;;;5035033;28;20373;-53
2022/01/19 11:32:15;;;;;;;;;;;5.80;99.90;;;;;;5049222;28;19932;-52
2022/01/19 11:34:46;;;;;;;;;;;5.70;99.90;;;;;;5052013;28;19978;-52
2022/01/19 11:37:13;;;;;;;;;;;5.70;99.90;;;;;;5041257;28;19951;-51
2022/01/19 11:39:54;;;;;;;;;;;5.50;99.90;;;;;;5054017;28;19925;-50
2022/01/19 11:42:21;;;;;;;;;;;5.20;99.90;;;;;;5040235;28;19986;-52
2022/01/19 11:44:51;;;;;;;;;;;5.20;99.90;;;;;;5051507;28;19925;-51
2022/01/19 11:47:21;;;;;;;;;;;5.30;99.90;;;;;;5044994;28;19933;-51
2022/01/19 11:49:49;;;;;;;;;;;5.60;99.90;;;;;;5052651;28;19925;-51
2022/01/19 11:52:18;;;;;;;;;;;5.60;99.90;;;;;;5042252;28;19929;-51
2022/01/19 11:54:46;;;;;;;;;;;5.20;99.90;;;;;;5044424;28;19925;-51
2022/01/19 11:57:13;;;;;;;;;;;4.70;99.90;;;;;;5047321;28;19932;-52
2022/01/19 11:59:58;;;;;;;;;;;4.90;99.90;;;;;;5052228;28;20436;-52
2022/01/19 12:02:36;;;;;;;;;;;4.70;99.90;;;;;;5048402;28;20386;-52
2022/01/19 12:05:14;;;;;;;;;;;4.70;99.90;;;;;;5049062;28;19939;-52
2022/01/19 12:07:42;;;;;;;;;;;4.90;99.90;;;;;;5052393;28;20391;-52
2022/01/19 12:10:11;;;;;;;;;;;4.80;99.90;;;;;;5051206;28;20402;-52
2022/01/19 12:12:44;;;;;;;;;;;5.00;99.90;;;;;;5050191;28;19925;-52
2022/01/19 12:15:26;;;;;;;;;;;5.10;99.90;;;;;;5051434;28;20051;-52
2022/01/19 12:18:01;;;;;;;;;;;5.00;99.90;;;;;;5047140;28;19924;-52
2022/01/19 12:20:51;;;;;;;;;;;5.10;99.90;;;;;;5050752;28;19928;-52
2022/01/19 12:23:25;;;;;;;;;;;5.00;99.90;;;;;;5024183;28;19979;-50
2022/01/19 12:25:55;;;;;;;;;;;5.10;99.90;;;;;;5044807;28;19925;-51
2022/01/19 12:28:46;;;;;;;;;;;4.90;99.90;;;;;;5043756;28;19932;-51
2022/01/19 12:31:30;;;;;;;;;;;4.90;99.90;;;;;;5027822;28;19924;-51
2022/01/19 12:34:15;;;;;;;;;;;4.90;99.90;;;;;;5046957;28;19928;-51
2022/01/19 12:36:46;;;;;;;;;;;4.90;99.90;;;;;;5047652;28;19925;-51
2022/01/19 12:39:32;;;;;;;;;;;4.90;99.90;;;;;;5052568;28;19924;-52
2022/01/19 12:42:00;;;;;;;;;;;5.00;99.90;;;;;;5050244;28;19924;-51
2022/01/19 12:44:40;;;;;;;;;;;5.10;99.90;;;;;;5049657;28;19986;-51
2022/01/19 12:47:22;;;;;;;;;;;5.00;99.90;;;;;;5045110;28;20338;-51
2022/01/19 12:49:50;;;;;;;;;;;5.00;99.90;;;;;;5049814;28;19978;-51
2022/01/19 12:52:19;;;;;;;;;;;5.10;99.90;;;;;;5050423;28;19925;-51
2022/01/19 12:54:45;;;;;;;;;;;5.00;99.90;;;;;;5052229;28;19979;-51
2022/01/19 12:57:15;;;;;;;;;;;5.00;99.90;;;;;;5046945;28;20456;-51
2022/01/19 12:59:42;;;;;;;;;;;5.10;99.90;;;;;;5050276;28;20243;-52
2022/01/19 13:02:09;;;;;;;;;;;4.90;99.90;;;;;;5048619;28;19984;-52
2022/01/19 13:04:37;;;;;;;;;;;4.80;99.90;;;;;;5050560;28;19940;-52
2022/01/19 13:07:19;;;;;;;;;;;4.90;99.90;;;;;;5051334;28;19925;-52
2022/01/19 13:10:01;;;;;;;;;;;4.90;99.90;;;;;;5049279;28;19944;-52
2022/01/19 13:12:37;;;;;;;;;;;5.00;99.90;;;;;;5049187;28;19935;-52
2022/01/19 13:15:03;;;;;;;;;;;5.30;99.90;;;;;;5052203;28;20011;-52
2022/01/19 13:17:40;;;;;;;;;;;5.20;99.90;;;;;;5043474;28;19925;-52
2022/01/19 13:20:11;;;;;;;;;;;5.30;99.90;;;;;;5040247;28;20000;-52
2022/01/19 13:22:47;;;;;;;;;;;5.30;99.90;;;;;;5032375;28;19929;-52
2022/01/19 13:25:17;;;;;;;;;;;5.40;99.90;;;;;;5050919;28;19933;-51
2022/01/19 13:27:45;;;;;;;;;;;5.30;99.90;;;;;;5051782;28;19974;-52
2022/01/19 13:30:12;;;;;;;;;;;5.30;99.90;;;;;;5050147;28;19925;-51
2022/01/19 13:32:39;;;;;;;;;;;5.20;99.90;;;;;;5050994;28;19925;-51
2022/01/19 13:35:07;;;;;;;;;;;5.10;99.90;;;;;;5043869;28;19932;-51
2022/01/19 13:37:36;;;;;;;;;;;5.10;99.90;;;;;;5050291;28;20012;-51
2022/01/19 13:40:06;;;;;;;;;;;5.10;99.90;;;;;;5039021;28;19925;-51
2022/01/19 13:42:35;;;;;;;;;;;4.70;99.90;;;;;;5048218;28;19979;-51
2022/01/19 13:45:09;;;;;;;;;;;5.00;99.90;;;;;;5043640;28;20335;-51
2022/01/19 13:47:52;;;;;;;;;;;4.80;99.90;;;;;;5043776;28;19974;-51
2022/01/19 13:50:19;;;;;;;;;;;4.80;99.90;;;;;;5043033;28;20394;-52
2022/01/19 13:52:46;;;;;;;;;;;4.80;99.90;;;;;;5044200;28;19943;-51
2022/01/19 13:55:18;;;;;;;;;;;4.70;99.90;;;;;;5045159;28;19924;-52
2022/01/19 13:57:45;;;;;;;;;;;4.80;99.90;;;;;;5047281;28;19929;-51
2022/01/19 14:00:13;;;;;;;;;;;4.80;99.90;;;;;;5046595;28;19970;-51
2022/01/19 14:02:39;;;;;;;;;;;4.80;99.90;;;;;;5049628;28;19933;-51
2022/01/19 14:05:06;;;;;;;;;;;4.80;99.90;;;;;;5050702;28;19933;-52
2022/01/19 14:07:33;;;;;;;;;;;4.90;99.90;;;;;;5051326;28;20387;-51
2022/01/19 14:10:06;;;;;;;;;;;4.80;99.90;;;;;;5050363;28;19933;-52
2022/01/19 14:12:34;;;;;;;;;;;4.80;99.90;;;;;;5051631;28;20440;-52
2022/01/19 14:15:02;;;;;;;;;;;4.80;99.90;;;;;;5051107;28;20275;-51
2022/01/19 14:17:30;;;;;;;;;;;4.80;99.90;;;;;;5046606;28;19967;-51
2022/01/19 14:19:58;;;;;;;;;;;4.70;99.90;;;;;;5045608;28;20094;-52
2022/01/19 14:22:26;;;;;;;;;;;4.60;99.90;;;;;;5048335;28;19994;-51
2022/01/19 14:24:54;;;;;;;;;;;4.70;99.90;;;;;;5050243;28;20450;-51
2022/01/19 14:27:36;;;;;;;;;;;4.70;99.90;;;;;;5054415;28;19924;-51
2022/01/19 14:30:05;;;;;;;;;;;4.80;99.90;;;;;;5054724;28;19929;-52
2022/01/19 14:32:39;;;;;;;;;;;4.60;99.90;;;;;;5055195;28;19925;-50
2022/01/19 14:35:21;;;;;;;;;;;4.70;99.90;;;;;;5055191;28;19978;-51
2022/01/19 14:37:59;;;;;;;;;;;4.60;99.90;;;;;;5051584;28;19925;-52
2022/01/19 14:40:26;;;;;;;;;;;4.60;99.90;;;;;;5055011;28;19925;-51
2022/01/19 14:42:54;;;;;;;;;;;4.60;99.90;;;;;;5039429;28;20398;-51
2022/01/19 14:45:25;;;;;;;;;;;4.60;99.90;;;;;;5051191;28;19971;-51
2022/01/19 14:47:54;;;;;;;;;;;4.60;99.90;;;;;;5054160;28;19964;-50
2022/01/19 14:50:22;;;;;;;;;;;4.50;99.90;;;;;;5054763;28;19925;-51
2022/01/19 14:52:50;;;;;;;;;;;4.50;99.90;;;;;;5054863;28;19975;-51
2022/01/19 14:55:18;;;;;;;;;;;4.40;99.90;;;;;;5054671;28;20019;-51
2022/01/19 14:57:45;;;;;;;;;;;4.40;99.90;;;;;;5053022;28;19929;-51
2022/01/19 15:00:13;;;;;;;;;;;4.40;99.90;;;;;;5053695;28;19928;-55
2022/01/19 15:02:40;;;;;;;;;;;4.20;99.90;;;;;;5053385;28;19978;-50
2022/01/19 15:05:07;;;;;;;;;;;4.20;99.90;;;;;;5054437;28;19925;-51
2022/01/19 15:07:36;;;;;;;;;;;4.30;99.90;;;;;;5055731;28;19925;-51
2022/01/19 15:10:03;;;;;;;;;;;4.30;99.90;;;;;;5054549;28;19971;-50
2022/01/19 15:12:30;;;;;;;;;;;4.20;99.90;;;;;;5054495;28;20374;-51
2022/01/19 15:14:57;;;;;;;;;;;4.20;99.90;;;;;;5054459;28;19925;-50
2022/01/19 15:17:26;;;;;;;;;;;4.20;99.90;;;;;;5054367;28;19928;-51
2022/01/19 15:19:52;;;;;;;;;;;4.10;99.90;;;;;;5045336;28;19925;-51
2022/01/19 15:22:22;;;;;;;;;;;4.00;99.90;;;;;;5054250;28;19925;-51
2022/01/19 15:24:49;;;;;;;;;;;4.00;99.90;;;;;;5053560;28;19925;-51
2022/01/19 15:27:16;;;;;;;;;;;4.00;99.90;;;;;;5054125;28;19925;-51
2022/01/19 15:29:42;;;;;;;;;;;3.80;99.90;;;;;;5054040;28;20003;-51
2022/01/19 15:32:09;;;;;;;;;;;3.70;99.90;;;;;;5054467;28;20287;-51
2022/01/19 15:34:37;;;;;;;;;;;3.60;99.90;;;;;;5084267;22;19924;-51
2022/01/19 15:37:04;;;;;;;;;;;3.50;99.90;;;;;;5073003;28;19940;-51
2022/01/19 15:39:32;;;;;;;;;;;3.30;99.90;;;;;;5071511;28;19929;-52
2022/01/19 15:41:59;;;;;;;;;;;3.20;99.90;;;;;;5062232;28;20358;-52